sensor_id;sensor_type;location;lat;lon;timestamp;P1;durP1;ratioP1;P2;durP2;ratioP2
11082;SDS011;5595;50.186;8.468;2022-07-10T00:00:10;4.38;;;1.10;;
11082;SDS011;5595;50.186;8.468;2022-07-10T00:02:39;1.95;;;1.38;;
11082;SDS011;5595;50.186;8.468;2022-07-10T00:05:07;2.30;;;0.95;;
11082;SDS011;5595;50.186;8.468;2022-07-10T00:07:36;3.25;;;1.10;;
11082;SDS011;5595;50.186;8.468;2022-07-10T00:13:26;5.63;;;1.25;;
11082;SDS011;5595;50.186;8.468;2022-07-10T00:16:08;3.90;;;1.27;;
11082;SDS011;5595;50.186;8.468;2022-07-10T00:18:35;3.58;;;1.20;;
11082;SDS011;5595;50.186;8.468;2022-07-10T00:21:17;1.65;;;1.17;;
11082;SDS011;5595;50.186;8.468;2022-07-10T00:27:09;3.55;;;1.20;;
11082;SDS011;5595;50.186;8.468;2022-07-10T00:32:57;4.68;;;1.27;;
11082;SDS011;5595;50.186;8.468;2022-07-10T00:38:46;1.63;;;1.10;;
11082;SDS011;5595;50.186;8.468;2022-07-10T00:41:13;4.68;;;1.17;;
11082;SDS011;5595;50.186;8.468;2022-07-10T00:43:54;2.63;;;1.00;;
11082;SDS011;5595;50.186;8.468;2022-07-10T00:46:22;1.58;;;1.08;;
11082;SDS011;5595;50.186;8.468;2022-07-10T00:48:50;2.70;;;1.10;;
11082;SDS011;5595;50.186;8.468;2022-07-10T00:51:17;3.63;;;1.40;;
11082;SDS011;5595;50.186;8.468;2022-07-10T00:53:46;3.17;;;1.20;;
11082;SDS011;5595;50.186;8.468;2022-07-10T00:56:15;3.03;;;1.30;;
11082;SDS011;5595;50.186;8.468;2022-07-10T00:58:43;2.10;;;0.97;;
11082;SDS011;5595;50.186;8.468;2022-07-10T01:01:12;3.87;;;1.10;;
11082;SDS011;5595;50.186;8.468;2022-07-10T01:03:39;1.77;;;1.00;;
11082;SDS011;5595;50.186;8.468;2022-07-10T01:09:41;3.15;;;1.02;;
11082;SDS011;5595;50.186;8.468;2022-07-10T01:15:30;2.15;;;1.05;;
11082;SDS011;5595;50.186;8.468;2022-07-10T01:25:01;2.58;;;0.90;;
11082;SDS011;5595;50.186;8.468;2022-07-10T01:30:51;4.00;;;1.13;;
11082;SDS011;5595;50.186;8.468;2022-07-10T01:36:18;2.42;;;0.93;;
11082;SDS011;5595;50.186;8.468;2022-07-10T01:38:46;3.58;;;1.00;;
11082;SDS011;5595;50.186;8.468;2022-07-10T01:41:14;3.67;;;0.95;;
11082;SDS011;5595;50.186;8.468;2022-07-10T01:43:41;4.38;;;1.33;;
11082;SDS011;5595;50.186;8.468;2022-07-10T01:46:10;2.42;;;1.08;;
11082;SDS011;5595;50.186;8.468;2022-07-10T01:48:37;3.97;;;1.17;;
11082;SDS011;5595;50.186;8.468;2022-07-10T01:51:05;7.60;;;0.90;;
11082;SDS011;5595;50.186;8.468;2022-07-10T01:53:32;2.15;;;0.70;;
11082;SDS011;5595;50.186;8.468;2022-07-10T01:55:59;3.33;;;1.13;;
11082;SDS011;5595;50.186;8.468;2022-07-10T01:58:30;3.55;;;1.05;;
11082;SDS011;5595;50.186;8.468;2022-07-10T02:00:57;3.07;;;1.03;;
11082;SDS011;5595;50.186;8.468;2022-07-10T02:03:24;1.87;;;0.90;;
11082;SDS011;5595;50.186;8.468;2022-07-10T02:06:09;1.52;;;0.73;;
11082;SDS011;5595;50.186;8.468;2022-07-10T02:08:36;5.17;;;0.90;;
11082;SDS011;5595;50.186;8.468;2022-07-10T02:11:02;2.67;;;0.90;;
11082;SDS011;5595;50.186;8.468;2022-07-10T02:16:53;4.47;;;1.00;;
11082;SDS011;5595;50.186;8.468;2022-07-10T02:22:42;3.13;;;0.70;;
11082;SDS011;5595;50.186;8.468;2022-07-10T02:27:57;4.50;;;0.90;;
11082;SDS011;5595;50.186;8.468;2022-07-10T02:30:36;3.80;;;0.67;;
11082;SDS011;5595;50.186;8.468;2022-07-10T02:33:04;3.20;;;0.80;;
11082;SDS011;5595;50.186;8.468;2022-07-10T02:38:22;3.13;;;0.97;;
11082;SDS011;5595;50.186;8.468;2022-07-10T02:40:49;1.90;;;1.00;;
11082;SDS011;5595;50.186;8.468;2022-07-10T02:43:16;2.70;;;0.70;;
11082;SDS011;5595;50.186;8.468;2022-07-10T02:45:43;3.47;;;0.93;;
11082;SDS011;5595;50.186;8.468;2022-07-10T02:48:11;1.47;;;0.77;;
11082;SDS011;5595;50.186;8.468;2022-07-10T02:50:38;4.57;;;1.00;;
11082;SDS011;5595;50.186;8.468;2022-07-10T02:53:05;2.87;;;0.90;;
11082;SDS011;5595;50.186;8.468;2022-07-10T02:55:32;4.13;;;1.13;;
11082;SDS011;5595;50.186;8.468;2022-07-10T02:57:59;2.83;;;1.00;;
11082;SDS011;5595;50.186;8.468;2022-07-10T03:00:26;3.33;;;0.80;;
11082;SDS011;5595;50.186;8.468;2022-07-10T03:02:53;1.10;;;0.57;;
11082;SDS011;5595;50.186;8.468;2022-07-10T03:08:25;5.20;;;1.03;;
11082;SDS011;5595;50.186;8.468;2022-07-10T03:10:52;3.67;;;0.90;;
11082;SDS011;5595;50.186;8.468;2022-07-10T03:13:19;5.10;;;0.67;;
11082;SDS011;5595;50.186;8.468;2022-07-10T03:18:38;3.80;;;1.00;;
11082;SDS011;5595;50.186;8.468;2022-07-10T03:21:06;2.37;;;1.00;;
11082;SDS011;5595;50.186;8.468;2022-07-10T03:23:33;3.13;;;1.20;;
11082;SDS011;5595;50.186;8.468;2022-07-10T03:29:04;4.07;;;0.80;;
11082;SDS011;5595;50.186;8.468;2022-07-10T03:31:31;3.03;;;0.77;;
11082;SDS011;5595;50.186;8.468;2022-07-10T03:33:58;3.97;;;0.97;;
11082;SDS011;5595;50.186;8.468;2022-07-10T03:39:21;3.37;;;0.87;;
11082;SDS011;5595;50.186;8.468;2022-07-10T03:41:48;5.60;;;0.80;;
11082;SDS011;5595;50.186;8.468;2022-07-10T03:44:15;3.17;;;0.80;;
11082;SDS011;5595;50.186;8.468;2022-07-10T03:49:46;3.23;;;0.70;;
11082;SDS011;5595;50.186;8.468;2022-07-10T03:52:15;4.20;;;1.17;;
11082;SDS011;5595;50.186;8.468;2022-07-10T03:54:41;5.73;;;1.07;;
11082;SDS011;5595;50.186;8.468;2022-07-10T04:00:22;5.90;;;0.93;;
11082;SDS011;5595;50.186;8.468;2022-07-10T04:02:54;2.63;;;0.73;;
11082;SDS011;5595;50.186;8.468;2022-07-10T04:22:12;3.80;;;0.67;;
11082;SDS011;5595;50.186;8.468;2022-07-10T04:37:50;3.40;;;0.67;;
11082;SDS011;5595;50.186;8.468;2022-07-10T04:47:01;2.63;;;0.70;;
11082;SDS011;5595;50.186;8.468;2022-07-10T04:52:51;2.03;;;0.50;;
11082;SDS011;5595;50.186;8.468;2022-07-10T05:02:04;2.90;;;0.53;;
11082;SDS011;5595;50.186;8.468;2022-07-10T05:08:05;2.80;;;0.40;;
11082;SDS011;5595;50.186;8.468;2022-07-10T05:13:53;2.42;;;0.50;;
11082;SDS011;5595;50.186;8.468;2022-07-10T05:19:38;2.67;;;0.75;;
11082;SDS011;5595;50.186;8.468;2022-07-10T05:22:05;2.95;;;0.60;;
11082;SDS011;5595;50.186;8.468;2022-07-10T05:27:55;3.88;;;0.70;;
11082;SDS011;5595;50.186;8.468;2022-07-10T05:33:45;1.63;;;0.40;;
11082;SDS011;5595;50.186;8.468;2022-07-10T05:36:29;1.85;;;0.50;;
11082;SDS011;5595;50.186;8.468;2022-07-10T05:38:56;2.33;;;0.50;;
11082;SDS011;5595;50.186;8.468;2022-07-10T05:44:16;3.65;;;0.60;;
11082;SDS011;5595;50.186;8.468;2022-07-10T05:46:44;2.30;;;0.65;;
11082;SDS011;5595;50.186;8.468;2022-07-10T05:49:11;2.15;;;0.50;;
11082;SDS011;5595;50.186;8.468;2022-07-10T05:51:38;5.13;;;0.93;;
11082;SDS011;5595;50.186;8.468;2022-07-10T05:54:05;1.85;;;0.40;;
11082;SDS011;5595;50.186;8.468;2022-07-10T05:59:55;1.90;;;0.47;;
11082;SDS011;5595;50.186;8.468;2022-07-10T06:02:31;1.33;;;0.47;;
11082;SDS011;5595;50.186;8.468;2022-07-10T06:04:58;1.08;;;0.30;;
11082;SDS011;5595;50.186;8.468;2022-07-10T06:10:47;3.55;;;0.45;;
11082;SDS011;5595;50.186;8.468;2022-07-10T06:13:26;4.03;;;0.68;;
11082;SDS011;5595;50.186;8.468;2022-07-10T06:15:54;0.75;;;0.25;;
11082;SDS011;5595;50.186;8.468;2022-07-10T06:24:50;1.98;;;0.40;;
11082;SDS011;5595;50.186;8.468;2022-07-10T06:30:39;1.73;;;0.30;;
11082;SDS011;5595;50.186;8.468;2022-07-10T06:36:23;2.88;;;0.40;;
11082;SDS011;5595;50.186;8.468;2022-07-10T06:38:50;3.17;;;0.50;;
11082;SDS011;5595;50.186;8.468;2022-07-10T06:41:17;3.10;;;0.60;;
11082;SDS011;5595;50.186;8.468;2022-07-10T06:43:44;3.38;;;0.70;;
11082;SDS011;5595;50.186;8.468;2022-07-10T06:46:11;2.83;;;0.50;;
11082;SDS011;5595;50.186;8.468;2022-07-10T06:48:56;2.55;;;0.50;;
11082;SDS011;5595;50.186;8.468;2022-07-10T06:51:24;1.33;;;0.55;;
11082;SDS011;5595;50.186;8.468;2022-07-10T06:53:50;3.17;;;0.40;;
11082;SDS011;5595;50.186;8.468;2022-07-10T06:56:18;2.35;;;0.55;;
11082;SDS011;5595;50.186;8.468;2022-07-10T07:01:40;2.78;;;0.50;;
11082;SDS011;5595;50.186;8.468;2022-07-10T07:04:06;1.13;;;0.32;;
11082;SDS011;5595;50.186;8.468;2022-07-10T07:06:35;8.60;;;1.00;;
11082;SDS011;5595;50.186;8.468;2022-07-10T07:12:24;2.22;;;0.40;;
11082;SDS011;5595;50.186;8.468;2022-07-10T07:18:13;1.92;;;0.55;;
11082;SDS011;5595;50.186;8.468;2022-07-10T07:27:27;2.53;;;0.43;;
11082;SDS011;5595;50.186;8.468;2022-07-10T07:33:16;3.63;;;0.50;;
11082;SDS011;5595;50.186;8.468;2022-07-10T07:39:05;4.45;;;0.70;;
11082;SDS011;5595;50.186;8.468;2022-07-10T07:41:32;3.38;;;0.70;;
11082;SDS011;5595;50.186;8.468;2022-07-10T07:44:00;3.25;;;0.50;;
11082;SDS011;5595;50.186;8.468;2022-07-10T07:46:27;3.90;;;0.52;;
11082;SDS011;5595;50.186;8.468;2022-07-10T07:48:54;3.17;;;0.57;;
11082;SDS011;5595;50.186;8.468;2022-07-10T07:51:25;3.85;;;0.57;;
11082;SDS011;5595;50.186;8.468;2022-07-10T07:53:54;2.42;;;0.35;;
11082;SDS011;5595;50.186;8.468;2022-07-10T07:56:21;4.85;;;0.50;;
11082;SDS011;5595;50.186;8.468;2022-07-10T07:58:48;1.25;;;0.40;;
11082;SDS011;5595;50.186;8.468;2022-07-10T08:01:22;2.92;;;0.70;;
11082;SDS011;5595;50.186;8.468;2022-07-10T08:03:50;1.48;;;0.20;;
11082;SDS011;5595;50.186;8.468;2022-07-10T08:06:17;3.47;;;0.57;;
11082;SDS011;5595;50.186;8.468;2022-07-10T08:08:43;4.05;;;0.60;;
11082;SDS011;5595;50.186;8.468;2022-07-10T08:14:14;1.55;;;0.32;;
11082;SDS011;5595;50.186;8.468;2022-07-10T08:16:43;9.18;;;0.98;;
11082;SDS011;5595;50.186;8.468;2022-07-10T08:19:10;2.28;;;0.60;;
11082;SDS011;5595;50.186;8.468;2022-07-10T08:24:32;3.15;;;0.50;;
11082;SDS011;5595;50.186;8.468;2022-07-10T08:26:59;3.22;;;0.50;;
11082;SDS011;5595;50.186;8.468;2022-07-10T08:29:26;3.30;;;0.73;;
11082;SDS011;5595;50.186;8.468;2022-07-10T08:35:02;5.78;;;0.63;;
11082;SDS011;5595;50.186;8.468;2022-07-10T08:37:29;6.07;;;0.50;;
11082;SDS011;5595;50.186;8.468;2022-07-10T08:39:56;2.40;;;0.40;;
11082;SDS011;5595;50.186;8.468;2022-07-10T08:45:14;2.22;;;0.55;;
11082;SDS011;5595;50.186;8.468;2022-07-10T08:47:41;3.78;;;0.40;;
11082;SDS011;5595;50.186;8.468;2022-07-10T08:50:15;2.63;;;0.63;;
11082;SDS011;5595;50.186;8.468;2022-07-10T08:55:51;3.13;;;0.57;;
11082;SDS011;5595;50.186;8.468;2022-07-10T08:58:18;1.80;;;0.45;;
11082;SDS011;5595;50.186;8.468;2022-07-10T09:00:48;4.07;;;0.60;;
11082;SDS011;5595;50.186;8.468;2022-07-10T09:03:30;3.45;;;0.75;;
11082;SDS011;5595;50.186;8.468;2022-07-10T09:05:59;5.05;;;0.52;;
11082;SDS011;5595;50.186;8.468;2022-07-10T09:08:26;4.13;;;0.60;;
11082;SDS011;5595;50.186;8.468;2022-07-10T09:14:01;3.10;;;0.68;;
11082;SDS011;5595;50.186;8.468;2022-07-10T09:16:30;3.00;;;0.52;;
11082;SDS011;5595;50.186;8.468;2022-07-10T09:19:14;2.60;;;0.60;;
11082;SDS011;5595;50.186;8.468;2022-07-10T09:21:46;6.57;;;1.17;;
11082;SDS011;5595;50.186;8.468;2022-07-10T09:24:14;5.25;;;0.70;;
11082;SDS011;5595;50.186;8.468;2022-07-10T09:26:45;4.20;;;0.80;;
11082;SDS011;5595;50.186;8.468;2022-07-10T09:29:24;2.22;;;0.60;;
11082;SDS011;5595;50.186;8.468;2022-07-10T09:31:51;5.95;;;0.85;;
11082;SDS011;5595;50.186;8.468;2022-07-10T09:37:22;3.15;;;0.47;;
11082;SDS011;5595;50.186;8.468;2022-07-10T09:39:56;4.47;;;0.65;;
11082;SDS011;5595;50.186;8.468;2022-07-10T09:42:24;4.28;;;0.80;;
11082;SDS011;5595;50.186;8.468;2022-07-10T09:47:43;5.53;;;0.60;;
11082;SDS011;5595;50.186;8.468;2022-07-10T09:52:58;2.38;;;0.63;;
11082;SDS011;5595;50.186;8.468;2022-07-10T09:55:27;5.28;;;0.55;;
11082;SDS011;5595;50.186;8.468;2022-07-10T09:57:56;2.47;;;0.60;;
11082;SDS011;5595;50.186;8.468;2022-07-10T10:00:24;3.45;;;0.70;;
11082;SDS011;5595;50.186;8.468;2022-07-10T10:02:56;4.43;;;0.65;;
11082;SDS011;5595;50.186;8.468;2022-07-10T10:05:36;4.10;;;0.60;;
11082;SDS011;5595;50.186;8.468;2022-07-10T10:08:09;2.22;;;0.88;;
11082;SDS011;5595;50.186;8.468;2022-07-10T10:10:43;2.72;;;0.50;;
11082;SDS011;5595;50.186;8.468;2022-07-10T10:13:12;2.10;;;0.40;;
11082;SDS011;5595;50.186;8.468;2022-07-10T10:16:04;2.10;;;0.52;;
11082;SDS011;5595;50.186;8.468;2022-07-10T10:18:34;3.80;;;0.52;;
11082;SDS011;5595;50.186;8.468;2022-07-10T10:24:31;5.50;;;0.65;;
11082;SDS011;5595;50.186;8.468;2022-07-10T10:33:45;5.75;;;0.60;;
11082;SDS011;5595;50.186;8.468;2022-07-10T10:45:25;2.00;;;0.32;;
11082;SDS011;5595;50.186;8.468;2022-07-10T10:48:16;4.93;;;0.65;;
11082;SDS011;5595;50.186;8.468;2022-07-10T10:54:17;2.75;;;0.50;;
11082;SDS011;5595;50.186;8.468;2022-07-10T11:00:08;3.95;;;0.50;;
11082;SDS011;5595;50.186;8.468;2022-07-10T11:05:53;3.33;;;0.70;;
11082;SDS011;5595;50.186;8.468;2022-07-10T11:15:05;3.38;;;0.63;;
11082;SDS011;5595;50.186;8.468;2022-07-10T11:21:05;1.88;;;0.57;;
11082;SDS011;5595;50.186;8.468;2022-07-10T11:26:58;2.20;;;0.40;;
11082;SDS011;5595;50.186;8.468;2022-07-10T11:29:56;1.85;;;0.40;;
11082;SDS011;5595;50.186;8.468;2022-07-10T11:35:48;2.22;;;0.50;;
11082;SDS011;5595;50.186;8.468;2022-07-10T11:38:22;3.45;;;0.50;;
11082;SDS011;5595;50.186;8.468;2022-07-10T11:40:52;3.13;;;0.52;;
11082;SDS011;5595;50.186;8.468;2022-07-10T11:43:23;1.80;;;0.52;;
11082;SDS011;5595;50.186;8.468;2022-07-10T11:45:50;2.83;;;0.32;;
11082;SDS011;5595;50.186;8.468;2022-07-10T11:48:25;3.83;;;0.60;;
11082;SDS011;5595;50.186;8.468;2022-07-10T11:50:56;3.85;;;0.38;;
11082;SDS011;5595;50.186;8.468;2022-07-10T11:53:40;4.78;;;0.95;;
11082;SDS011;5595;50.186;8.468;2022-07-10T11:56:18;3.20;;;0.47;;
11082;SDS011;5595;50.186;8.468;2022-07-10T11:58:53;3.47;;;0.50;;
11082;SDS011;5595;50.186;8.468;2022-07-10T12:01:23;2.17;;;0.30;;
11082;SDS011;5595;50.186;8.468;2022-07-10T12:04:06;0.80;;;0.40;;
11082;SDS011;5595;50.186;8.468;2022-07-10T12:06:35;1.77;;;0.40;;
11082;SDS011;5595;50.186;8.468;2022-07-10T12:09:05;3.00;;;0.40;;
11082;SDS011;5595;50.186;8.468;2022-07-10T12:11:33;2.15;;;0.40;;
11082;SDS011;5595;50.186;8.468;2022-07-10T12:17:23;2.58;;;0.40;;
11082;SDS011;5595;50.186;8.468;2022-07-10T12:22:54;4.10;;;0.82;;
11082;SDS011;5595;50.186;8.468;2022-07-10T12:28:26;3.60;;;0.70;;
11082;SDS011;5595;50.186;8.468;2022-07-10T12:30:53;1.05;;;0.40;;
11082;SDS011;5595;50.186;8.468;2022-07-10T12:33:21;1.30;;;0.52;;
11082;SDS011;5595;50.186;8.468;2022-07-10T12:38:53;2.83;;;0.38;;
11082;SDS011;5595;50.186;8.468;2022-07-10T12:44:35;3.05;;;0.30;;
11082;SDS011;5595;50.186;8.468;2022-07-10T12:47:05;1.88;;;0.43;;
11082;SDS011;5595;50.186;8.468;2022-07-10T12:49:48;2.20;;;0.43;;
11082;SDS011;5595;50.186;8.468;2022-07-10T12:52:25;2.90;;;0.43;;
11082;SDS011;5595;50.186;8.468;2022-07-10T12:58:16;2.38;;;0.40;;
11082;SDS011;5595;50.186;8.468;2022-07-10T13:03:39;1.67;;;0.38;;
11082;SDS011;5595;50.186;8.468;2022-07-10T13:06:06;2.08;;;0.50;;
11082;SDS011;5595;50.186;8.468;2022-07-10T13:08:52;3.67;;;0.28;;
11082;SDS011;5595;50.186;8.468;2022-07-10T13:14:42;0.70;;;0.20;;
11082;SDS011;5595;50.186;8.468;2022-07-10T13:17:10;0.93;;;0.30;;
11082;SDS011;5595;50.186;8.468;2022-07-10T13:19:37;1.05;;;0.28;;
11082;SDS011;5595;50.186;8.468;2022-07-10T13:25:17;1.83;;;0.55;;
11082;SDS011;5595;50.186;8.468;2022-07-10T13:30:33;2.60;;;0.63;;
11082;SDS011;5595;50.186;8.468;2022-07-10T13:33:02;0.88;;;0.22;;
11082;SDS011;5595;50.186;8.468;2022-07-10T13:35:31;3.70;;;1.30;;
11082;SDS011;5595;50.186;8.468;2022-07-10T13:37:59;2.15;;;0.50;;
11082;SDS011;5595;50.186;8.468;2022-07-10T13:40:28;2.03;;;0.63;;
11082;SDS011;5595;50.186;8.468;2022-07-10T13:42:56;3.30;;;0.80;;
11082;SDS011;5595;50.186;8.468;2022-07-10T13:45:23;0.80;;;0.30;;
11082;SDS011;5595;50.186;8.468;2022-07-10T13:47:52;1.52;;;0.25;;
11082;SDS011;5595;50.186;8.468;2022-07-10T13:50:21;0.82;;;0.20;;
11082;SDS011;5595;50.186;8.468;2022-07-10T13:52:49;0.40;;;0.20;;
11082;SDS011;5595;50.186;8.468;2022-07-10T13:55:16;1.27;;;0.20;;
11082;SDS011;5595;50.186;8.468;2022-07-10T13:57:43;1.65;;;0.25;;
11082;SDS011;5595;50.186;8.468;2022-07-10T14:00:10;1.05;;;0.20;;
11082;SDS011;5595;50.186;8.468;2022-07-10T14:06:01;0.50;;;0.20;;
11082;SDS011;5595;50.186;8.468;2022-07-10T14:08:32;1.00;;;0.30;;
11082;SDS011;5595;50.186;8.468;2022-07-10T14:10:59;2.20;;;0.40;;
11082;SDS011;5595;50.186;8.468;2022-07-10T14:13:26;0.55;;;0.10;;
11082;SDS011;5595;50.186;8.468;2022-07-10T14:15:53;0.15;;;0.10;;
11082;SDS011;5595;50.186;8.468;2022-07-10T14:27:57;2.75;;;0.20;;
11082;SDS011;5595;50.186;8.468;2022-07-10T14:30:24;1.73;;;0.30;;
11082;SDS011;5595;50.186;8.468;2022-07-10T14:32:51;1.13;;;0.20;;
11082;SDS011;5595;50.186;8.468;2022-07-10T14:42:06;1.98;;;0.30;;
11082;SDS011;5595;50.186;8.468;2022-07-10T14:44:34;0.20;;;0.20;;
11082;SDS011;5595;50.186;8.468;2022-07-10T14:47:01;0.93;;;0.28;;
11082;SDS011;5595;50.186;8.468;2022-07-10T14:49:29;1.73;;;0.65;;
11082;SDS011;5595;50.186;8.468;2022-07-10T14:51:56;0.43;;;0.20;;
11082;SDS011;5595;50.186;8.468;2022-07-10T14:57:47;0.65;;;0.20;;
11082;SDS011;5595;50.186;8.468;2022-07-10T15:03:36;0.45;;;0.10;;
11082;SDS011;5595;50.186;8.468;2022-07-10T15:09:26;0.47;;;0.20;;
11082;SDS011;5595;50.186;8.468;2022-07-10T15:11:53;0.35;;;0.20;;
11082;SDS011;5595;50.186;8.468;2022-07-10T15:14:21;1.05;;;0.10;;
11082;SDS011;5595;50.186;8.468;2022-07-10T15:16:48;0.20;;;0.15;;
11082;SDS011;5595;50.186;8.468;2022-07-10T15:22:37;1.45;;;0.10;;
11082;SDS011;5595;50.186;8.468;2022-07-10T15:25:04;0.10;;;0.10;;
11082;SDS011;5595;50.186;8.468;2022-07-10T15:27:31;0.40;;;0.20;;
11082;SDS011;5595;50.186;8.468;2022-07-10T15:29:59;0.10;;;0.10;;
11082;SDS011;5595;50.186;8.468;2022-07-10T15:32:26;1.65;;;0.13;;
11082;SDS011;5595;50.186;8.468;2022-07-10T15:34:53;1.00;;;0.20;;
11082;SDS011;5595;50.186;8.468;2022-07-10T15:37:20;0.88;;;0.20;;
11082;SDS011;5595;50.186;8.468;2022-07-10T15:39:48;0.57;;;0.20;;
11082;SDS011;5595;50.186;8.468;2022-07-10T15:42:15;1.20;;;0.20;;
11082;SDS011;5595;50.186;8.468;2022-07-10T15:44:42;0.35;;;0.20;;
11082;SDS011;5595;50.186;8.468;2022-07-10T15:49:59;0.20;;;0.20;;
11082;SDS011;5595;50.186;8.468;2022-07-10T15:52:26;1.35;;;0.30;;
11082;SDS011;5595;50.186;8.468;2022-07-10T15:54:53;1.50;;;0.30;;
11082;SDS011;5595;50.186;8.468;2022-07-10T15:57:20;2.25;;;0.30;;
11082;SDS011;5595;50.186;8.468;2022-07-10T15:59:48;1.58;;;0.30;;
11082;SDS011;5595;50.186;8.468;2022-07-10T16:05:05;0.60;;;0.35;;
11082;SDS011;5595;50.186;8.468;2022-07-10T16:10:46;2.95;;;0.60;;
11082;SDS011;5595;50.186;8.468;2022-07-10T16:16:14;0.73;;;0.63;;
11082;SDS011;5595;50.186;8.468;2022-07-10T16:19:01;1.27;;;0.70;;
11082;SDS011;5595;50.186;8.468;2022-07-10T16:21:28;1.20;;;0.90;;
11082;SDS011;5595;50.186;8.468;2022-07-10T16:26:44;2.10;;;1.02;;
11082;SDS011;5595;50.186;8.468;2022-07-10T16:29:26;1.05;;;0.60;;
11082;SDS011;5595;50.186;8.468;2022-07-10T16:31:54;1.90;;;0.95;;
11082;SDS011;5595;50.186;8.468;2022-07-10T16:34:32;1.75;;;0.70;;
11082;SDS011;5595;50.186;8.468;2022-07-10T16:36:59;1.42;;;0.90;;
11082;SDS011;5595;50.186;8.468;2022-07-10T16:39:26;0.70;;;0.47;;
11082;SDS011;5595;50.186;8.468;2022-07-10T16:41:53;0.90;;;0.90;;
11082;SDS011;5595;50.186;8.468;2022-07-10T16:44:20;0.70;;;0.70;;
11082;SDS011;5595;50.186;8.468;2022-07-10T16:46:47;1.00;;;0.88;;
11082;SDS011;5595;50.186;8.468;2022-07-10T16:49:14;0.70;;;0.70;;
11082;SDS011;5595;50.186;8.468;2022-07-10T16:51:42;0.75;;;0.50;;
11082;SDS011;5595;50.186;8.468;2022-07-10T16:54:09;1.30;;;0.50;;
11082;SDS011;5595;50.186;8.468;2022-07-10T16:56:36;1.55;;;1.27;;
11082;SDS011;5595;50.186;8.468;2022-07-10T16:59:21;1.02;;;0.73;;
11082;SDS011;5595;50.186;8.468;2022-07-10T17:01:49;0.82;;;0.82;;
11082;SDS011;5595;50.186;8.468;2022-07-10T17:04:28;1.20;;;1.10;;
11082;SDS011;5595;50.186;8.468;2022-07-10T17:07:03;1.10;;;1.10;;
11082;SDS011;5595;50.186;8.468;2022-07-10T17:09:31;1.55;;;1.40;;
11082;SDS011;5595;50.186;8.468;2022-07-10T17:11:58;1.52;;;1.42;;
11082;SDS011;5595;50.186;8.468;2022-07-10T17:17:47;1.92;;;1.52;;
11082;SDS011;5595;50.186;8.468;2022-07-10T17:23:38;1.80;;;1.70;;
11082;SDS011;5595;50.186;8.468;2022-07-10T17:28:59;1.95;;;1.27;;
11082;SDS011;5595;50.186;8.468;2022-07-10T17:34:21;2.03;;;1.83;;
11082;SDS011;5595;50.186;8.468;2022-07-10T17:36:47;2.10;;;1.63;;
11082;SDS011;5595;50.186;8.468;2022-07-10T17:39:16;1.70;;;1.60;;
11082;SDS011;5595;50.186;8.468;2022-07-10T17:41:43;1.25;;;1.25;;
11082;SDS011;5595;50.186;8.468;2022-07-10T17:44:10;2.15;;;1.30;;
11082;SDS011;5595;50.186;8.468;2022-07-10T17:49:59;1.85;;;1.23;;
11082;SDS011;5595;50.186;8.468;2022-07-10T17:52:37;1.00;;;0.77;;
11082;SDS011;5595;50.186;8.468;2022-07-10T17:55:07;1.45;;;1.40;;
11082;SDS011;5595;50.186;8.468;2022-07-10T18:00:23;1.50;;;1.40;;
11082;SDS011;5595;50.186;8.468;2022-07-10T18:03:02;0.95;;;0.95;;
11082;SDS011;5595;50.186;8.468;2022-07-10T18:05:30;1.30;;;0.80;;
11082;SDS011;5595;50.186;8.468;2022-07-10T18:11:10;0.60;;;0.60;;
11082;SDS011;5595;50.186;8.468;2022-07-10T18:13:38;0.82;;;0.82;;
11082;SDS011;5595;50.186;8.468;2022-07-10T18:16:05;0.80;;;0.80;;
11082;SDS011;5595;50.186;8.468;2022-07-10T18:18:39;1.08;;;0.98;;
11082;SDS011;5595;50.186;8.468;2022-07-10T18:21:07;1.10;;;1.10;;
11082;SDS011;5595;50.186;8.468;2022-07-10T18:23:35;1.13;;;1.02;;
11082;SDS011;5595;50.186;8.468;2022-07-10T18:26:04;1.00;;;0.90;;
11082;SDS011;5595;50.186;8.468;2022-07-10T18:28:35;1.15;;;1.13;;
11082;SDS011;5595;50.186;8.468;2022-07-10T18:31:04;0.90;;;0.90;;
11082;SDS011;5595;50.186;8.468;2022-07-10T18:33:32;1.20;;;1.05;;
11082;SDS011;5595;50.186;8.468;2022-07-10T18:36:17;1.10;;;1.10;;
11082;SDS011;5595;50.186;8.468;2022-07-10T18:38:44;1.00;;;1.00;;
11082;SDS011;5595;50.186;8.468;2022-07-10T18:41:11;2.90;;;1.42;;
11082;SDS011;5595;50.186;8.468;2022-07-10T18:43:40;2.70;;;1.27;;
11082;SDS011;5595;50.186;8.468;2022-07-10T18:46:07;1.20;;;1.20;;
11082;SDS011;5595;50.186;8.468;2022-07-10T18:51:33;1.55;;;1.45;;
11082;SDS011;5595;50.186;8.468;2022-07-10T18:57:22;3.28;;;1.60;;
11082;SDS011;5595;50.186;8.468;2022-07-10T19:03:05;1.95;;;1.85;;
11082;SDS011;5595;50.186;8.468;2022-07-10T19:05:33;3.92;;;2.15;;
11082;SDS011;5595;50.186;8.468;2022-07-10T19:08:00;1.80;;;1.70;;
11082;SDS011;5595;50.186;8.468;2022-07-10T19:13:26;2.45;;;2.25;;
11082;SDS011;5595;50.186;8.468;2022-07-10T19:15:53;2.63;;;2.47;;
11082;SDS011;5595;50.186;8.468;2022-07-10T19:18:22;2.60;;;2.50;;
11082;SDS011;5595;50.186;8.468;2022-07-10T19:23:48;3.72;;;3.00;;
11082;SDS011;5595;50.186;8.468;2022-07-10T19:32:08;4.38;;;4.05;;
11082;SDS011;5595;50.186;8.468;2022-07-10T19:37:58;4.13;;;3.58;;
11082;SDS011;5595;50.186;8.468;2022-07-10T19:43:14;5.47;;;4.32;;
11082;SDS011;5595;50.186;8.468;2022-07-10T19:48:54;4.97;;;4.57;;
11082;SDS011;5595;50.186;8.468;2022-07-10T19:51:21;4.35;;;3.95;;
11082;SDS011;5595;50.186;8.468;2022-07-10T19:53:49;7.70;;;5.10;;
11082;SDS011;5595;50.186;8.468;2022-07-10T19:56:17;5.85;;;5.35;;
11082;SDS011;5595;50.186;8.468;2022-07-10T19:58:45;4.38;;;4.05;;
11082;SDS011;5595;50.186;8.468;2022-07-10T20:01:28;5.45;;;5.03;;
11082;SDS011;5595;50.186;8.468;2022-07-10T20:03:55;5.43;;;5.00;;
11082;SDS011;5595;50.186;8.468;2022-07-10T20:09:45;6.28;;;5.68;;
11082;SDS011;5595;50.186;8.468;2022-07-10T20:15:29;5.22;;;4.82;;
11082;SDS011;5595;50.186;8.468;2022-07-10T20:21:07;5.43;;;5.00;;
11082;SDS011;5595;50.186;8.468;2022-07-10T20:23:50;6.20;;;5.28;;
11082;SDS011;5595;50.186;8.468;2022-07-10T20:26:18;6.43;;;5.22;;
11082;SDS011;5595;50.186;8.468;2022-07-10T20:28:58;6.15;;;5.55;;
11082;SDS011;5595;50.186;8.468;2022-07-10T20:31:25;7.40;;;5.13;;
11082;SDS011;5595;50.186;8.468;2022-07-10T20:33:52;7.93;;;6.85;;
11082;SDS011;5595;50.186;8.468;2022-07-10T20:36:20;8.23;;;7.10;;
11082;SDS011;5595;50.186;8.468;2022-07-10T20:39:04;7.55;;;6.70;;
11082;SDS011;5595;50.186;8.468;2022-07-10T20:41:33;7.35;;;6.60;;
11082;SDS011;5595;50.186;8.468;2022-07-10T20:44:00;8.10;;;7.30;;
11082;SDS011;5595;50.186;8.468;2022-07-10T20:46:27;8.88;;;7.28;;
11082;SDS011;5595;50.186;8.468;2022-07-10T20:48:54;8.95;;;7.80;;
11082;SDS011;5595;50.186;8.468;2022-07-10T20:51:21;7.70;;;6.88;;
11082;SDS011;5595;50.186;8.468;2022-07-10T20:56:44;7.30;;;6.60;;
11082;SDS011;5595;50.186;8.468;2022-07-10T20:59:12;8.85;;;7.50;;
11082;SDS011;5595;50.186;8.468;2022-07-10T21:01:39;8.32;;;7.55;;
11082;SDS011;5595;50.186;8.468;2022-07-10T21:04:06;7.63;;;6.88;;
11082;SDS011;5595;50.186;8.468;2022-07-10T21:06:33;7.82;;;7.13;;
11082;SDS011;5595;50.186;8.468;2022-07-10T21:12:23;6.90;;;6.30;;
11082;SDS011;5595;50.186;8.468;2022-07-10T21:17:55;10.15;;;7.22;;
11082;SDS011;5595;50.186;8.468;2022-07-10T21:23:17;9.98;;;7.60;;
11082;SDS011;5595;50.186;8.468;2022-07-10T21:32:03;12.90;;;7.10;;
11082;SDS011;5595;50.186;8.468;2022-07-10T21:37:49;8.90;;;7.00;;
11082;SDS011;5595;50.186;8.468;2022-07-10T21:40:16;6.85;;;5.55;;
11082;SDS011;5595;50.186;8.468;2022-07-10T21:42:43;7.05;;;6.40;;
11082;SDS011;5595;50.186;8.468;2022-07-10T21:45:10;8.45;;;6.75;;
11082;SDS011;5595;50.186;8.468;2022-07-10T21:47:39;8.07;;;7.32;;
11082;SDS011;5595;50.186;8.468;2022-07-10T21:50:06;8.27;;;6.88;;
11082;SDS011;5595;50.186;8.468;2022-07-10T21:52:34;7.47;;;6.60;;
11082;SDS011;5595;50.186;8.468;2022-07-10T21:55:01;7.35;;;6.75;;
11082;SDS011;5595;50.186;8.468;2022-07-10T22:00:49;7.38;;;6.38;;
11082;SDS011;5595;50.186;8.468;2022-07-10T22:03:18;8.55;;;5.45;;
11082;SDS011;5595;50.186;8.468;2022-07-10T22:05:45;6.95;;;6.28;;